Time;durP1;ratioP1;P1;durP2;ratioP2;P2;SDS_P1;SDS_P2;PMS_P1;PMS_P2;Temp;Humidity;BMP_temperature;BMP_pressure;BME280_temperature;BME280_humidity;BME280_pressure;Samples;Min_cycle;Max_cycle;Signal;HPM_P1;HPM_P2
2022/07/23 00:01:07;;;;;;;11.27;6.25;;;18.50;99.90;;;;;;5026205;28;20037;-61
2022/07/23 00:03:33;;;;;;;12.40;6.28;;;18.30;99.90;;;;;;5035912;28;20076;-61
2022/07/23 00:06:00;;;;;;;12.00;6.07;;;18.10;99.90;;;;;;5026556;28;20087;-60
2022/07/23 00:08:26;;;;;;;10.35;6.25;;;18.00;99.90;;;;;;5031894;28;20026;-61
2022/07/23 00:10:51;;;;;;;9.40;6.15;;;18.00;99.90;;;;;;5030919;28;20554;-61
2022/07/23 00:13:17;;;;;;;9.07;5.93;;;17.90;99.90;;;;;;5028641;28;20396;-61
2022/07/23 00:15:42;;;;;;;16.60;6.85;;;17.80;99.90;;;;;;5030718;28;20485;-61
2022/07/23 00:18:08;;;;;;;11.02;6.43;;;17.80;99.90;;;;;;5045943;28;20387;-60
2022/07/23 00:20:34;;;;;;;11.10;6.32;;;18.00;99.90;;;;;;5029850;28;20074;-60
2022/07/23 00:22:59;;;;;;;9.10;6.15;;;18.30;99.90;;;;;;5028347;28;20022;-61
2022/07/23 00:25:26;;;;;;;14.32;7.00;;;17.90;99.90;;;;;;5024934;28;20409;-60
2022/07/23 00:27:51;;;;;;;11.88;6.60;;;18.00;99.90;;;;;;5027738;28;20025;-61
2022/07/23 00:30:18;;;;;;;8.07;5.95;;;18.00;99.90;;;;;;5025370;28;20029;-61
2022/07/23 00:32:58;;;;;;;10.45;6.63;;;18.00;99.90;;;;;;5033075;28;20662;-60
2022/07/23 00:35:26;;;;;;;14.13;6.70;;;17.90;99.90;;;;;;5038238;28;20095;-61
2022/07/23 00:37:53;;;;;;;16.15;7.15;;;17.90;99.90;;;;;;5033184;28;20124;-61
2022/07/23 00:40:18;;;;;;;13.80;7.35;;;17.90;99.90;;;;;;5031185;28;20029;-61
2022/07/23 00:42:44;;;;;;;11.43;7.38;;;17.80;99.90;;;;;;5031142;28;20158;-61
2022/07/23 00:45:10;;;;;;;11.93;6.72;;;17.60;99.90;;;;;;5030870;28;20104;-61
2022/07/23 00:47:36;;;;;;;8.50;6.63;;;17.50;99.90;;;;;;5031298;28;20056;-60
2022/07/23 00:50:04;;;;;;;11.25;7.32;;;17.70;99.90;;;;;;5036020;28;20059;-61
2022/07/23 00:52:31;;;;;;;10.30;6.85;;;17.60;99.90;;;;;;5028704;28;20037;-61
2022/07/23 00:54:57;;;;;;;10.55;7.18;;;17.60;99.90;;;;;;5029390;28;20029;-60
2022/07/23 00:57:23;;;;;;;11.68;7.10;;;17.50;99.90;;;;;;5034529;28;20026;-61
2022/07/23 00:59:48;;;;;;;11.70;7.25;;;17.50;99.90;;;;;;5034697;28;20433;-61
2022/07/23 01:02:14;;;;;;;9.63;6.88;;;17.50;99.90;;;;;;5038411;28;20044;-62
2022/07/23 01:04:40;;;;;;;11.60;7.50;;;17.40;99.90;;;;;;5029488;28;20028;-61
2022/07/23 01:07:05;;;;;;;11.02;7.65;;;17.30;99.90;;;;;;5029423;28;20086;-60
2022/07/23 01:09:31;;;;;;;11.13;7.93;;;17.30;99.90;;;;;;5024568;28;20032;-61
2022/07/23 01:11:58;;;;;;;12.25;8.15;;;17.00;99.90;;;;;;5030574;28;20032;-60
2022/07/23 01:14:24;;;;;;;18.77;8.77;;;17.10;99.90;;;;;;5033853;28;20036;-60
2022/07/23 01:16:50;;;;;;;11.23;8.65;;;17.10;99.90;;;;;;5038705;28;20728;-61
2022/07/23 01:19:17;;;;;;;11.35;8.35;;;17.20;99.90;;;;;;5041837;28;20065;-60
2022/07/23 01:21:44;;;;;;;11.23;8.18;;;17.10;99.90;;;;;;5036285;28;20053;-61
2022/07/23 01:24:11;;;;;;;18.10;8.77;;;17.00;99.90;;;;;;5026893;28;20056;-60
2022/07/23 01:26:38;;;;;;;10.77;7.85;;;17.00;99.90;;;;;;5037014;28;20036;-61
2022/07/23 01:29:04;;;;;;;9.85;8.35;;;17.60;99.90;;;;;;5024674;28;20112;-60
2022/07/23 01:31:30;;;;;;;11.80;8.10;;;17.20;99.90;;;;;;5030344;28;20028;-61
2022/07/23 01:33:56;;;;;;;10.25;8.48;;;17.10;99.90;;;;;;5030370;28;20083;-61
2022/07/23 01:36:22;;;;;;;15.57;8.35;;;17.10;99.90;;;;;;5030288;28;20084;-61
2022/07/23 01:38:48;;;;;;;13.77;8.10;;;16.80;99.90;;;;;;5029533;28;20586;-60
2022/07/23 01:41:14;;;;;;;11.10;7.88;;;16.80;99.90;;;;;;5027420;28;20105;-61
2022/07/23 01:43:39;;;;;;;13.40;8.02;;;17.10;99.90;;;;;;5024395;28;20086;-60
2022/07/23 01:46:05;;;;;;;12.70;7.93;;;17.10;99.90;;;;;;5031427;28;20056;-60
2022/07/23 01:48:30;;;;;;;10.27;7.45;;;17.20;99.90;;;;;;5034286;28;20025;-60
2022/07/23 01:50:56;;;;;;;9.35;7.50;;;17.30;99.90;;;;;;5026661;28;20026;-61
2022/07/23 01:53:24;;;;;;;12.07;7.78;;;17.30;99.90;;;;;;5035134;28;20026;-60
2022/07/23 01:55:50;;;;;;;10.73;7.68;;;17.40;99.90;;;;;;5026991;28;20021;-60
2022/07/23 01:58:16;;;;;;;12.40;7.82;;;17.40;99.90;;;;;;5028437;28;20045;-61
2022/07/23 02:00:41;;;;;;;8.48;7.57;;;17.30;99.90;;;;;;5028605;28;20029;-60
2022/07/23 02:03:07;;;;;;;7.63;6.82;;;17.20;99.90;;;;;;5036511;28;20035;-61
2022/07/23 02:05:32;;;;;;;9.82;7.30;;;17.20;99.90;;;;;;5025665;28;20561;-60
2022/07/23 02:07:59;;;;;;;13.65;7.85;;;17.10;99.90;;;;;;5029422;28;20044;-61
2022/07/23 02:10:26;;;;;;;8.40;7.47;;;17.10;99.90;;;;;;5026479;28;20566;-61
2022/07/23 02:12:52;;;;;;;9.27;8.13;;;17.20;99.90;;;;;;5027190;28;20630;-60
2022/07/23 02:15:18;;;;;;;14.55;8.20;;;17.10;99.90;;;;;;5032344;28;20022;-60
2022/07/23 02:17:43;;;;;;;9.52;7.95;;;17.20;99.90;;;;;;5037968;28;20020;-61
2022/07/23 02:20:10;;;;;;;10.88;8.05;;;17.00;99.90;;;;;;5026378;28;20051;-61
2022/07/23 02:22:36;;;;;;;13.20;8.27;;;16.90;99.90;;;;;;5036706;28;20037;-60
2022/07/23 02:25:06;;;;;;;12.48;8.40;;;17.10;99.90;;;;;;5023834;28;20025;-61
2022/07/23 02:27:32;;;;;;;10.05;8.18;;;17.00;99.90;;;;;;5037913;28;20030;-61
2022/07/23 02:29:58;;;;;;;12.10;8.02;;;17.10;99.90;;;;;;5025359;28;20107;-60
2022/07/23 02:32:24;;;;;;;10.23;8.80;;;17.00;99.90;;;;;;5041435;28;20065;-60
2022/07/23 02:34:50;;;;;;;10.95;8.18;;;17.00;99.90;;;;;;5032625;28;20036;-60
2022/07/23 02:37:16;;;;;;;11.10;8.07;;;16.70;99.90;;;;;;5032945;28;20623;-60
2022/07/23 02:39:42;;;;;;;17.10;8.77;;;16.80;99.90;;;;;;5040022;28;20097;-60
2022/07/23 02:42:08;;;;;;;11.68;8.27;;;16.70;99.90;;;;;;5030254;28;20025;-60
2022/07/23 02:44:34;;;;;;;11.57;7.90;;;17.90;99.90;;;;;;5031337;28;20130;-60
2022/07/23 02:46:59;;;;;;;17.48;8.35;;;16.60;99.90;;;;;;5033679;28;20044;-60
2022/07/23 02:49:25;;;;;;;11.73;7.97;;;16.50;99.90;;;;;;5031880;28;20493;-61
2022/07/23 02:51:50;;;;;;;10.82;8.30;;;16.60;99.90;;;;;;5029189;28;20025;-61
2022/07/23 02:54:16;;;;;;;11.65;9.15;;;16.70;99.90;;;;;;5033807;28;20040;-61
2022/07/23 02:56:42;;;;;;;12.20;8.95;;;16.60;99.90;;;;;;5029909;28;20033;-61
2022/07/23 02:59:08;;;;;;;10.23;8.43;;;16.70;99.90;;;;;;5029817;28;20025;-60
2022/07/23 03:01:33;;;;;;;13.65;9.00;;;16.40;99.90;;;;;;5036926;28;20108;-61
2022/07/23 03:03:59;;;;;;;10.50;8.25;;;16.30;99.90;;;;;;5031616;28;20059;-60
2022/07/23 03:06:25;;;;;;;10.07;8.68;;;16.30;99.90;;;;;;5030959;28;20548;-60
2022/07/23 03:08:50;;;;;;;13.70;9.32;;;16.20;99.90;;;;;;5033605;28;20028;-60
2022/07/23 03:11:16;;;;;;;12.50;9.02;;;16.30;99.90;;;;;;5028983;28;20021;-60
2022/07/23 03:13:41;;;;;;;13.65;9.32;;;16.40;99.90;;;;;;5038476;28;20030;-61
2022/07/23 03:16:07;;;;;;;13.23;8.93;;;16.20;99.90;;;;;;5028472;28;20064;-60
2022/07/23 03:18:33;;;;;;;9.60;8.00;;;16.20;99.90;;;;;;5040784;28;20112;-61
2022/07/23 03:20:59;;;;;;;14.35;8.98;;;16.20;99.90;;;;;;5033853;28;20070;-60
2022/07/23 03:23:25;;;;;;;11.57;9.07;;;16.10;99.90;;;;;;5029174;28;20291;-61
2022/07/23 03:25:50;;;;;;;10.88;8.35;;;16.10;99.90;;;;;;5031203;28;20064;-61
2022/07/23 03:28:17;;;;;;;10.60;8.48;;;16.40;99.90;;;;;;5033241;28;20688;-60
2022/07/23 03:30:46;;;;;;;12.57;8.88;;;16.20;99.90;;;;;;5031708;28;20481;-60
2022/07/23 03:33:16;;;;;;;11.45;8.70;;;16.10;99.90;;;;;;5028429;28;20040;-61
2022/07/23 03:35:42;;;;;;;11.85;8.82;;;16.10;99.90;;;;;;5031841;28;20104;-61
2022/07/23 03:38:08;;;;;;;13.82;8.98;;;16.20;99.90;;;;;;5028671;28;20087;-61
2022/07/23 03:40:33;;;;;;;10.50;8.50;;;16.20;99.90;;;;;;5028887;28;20514;-60
2022/07/23 03:42:59;;;;;;;13.02;9.82;;;16.30;99.90;;;;;;5031780;28;20025;-60
2022/07/23 03:45:25;;;;;;;12.50;8.63;;;16.40;99.90;;;;;;5043161;28;20025;-60
2022/07/23 03:47:50;;;;;;;10.43;8.18;;;16.20;99.90;;;;;;5030813;28;20501;-60
2022/07/23 03:50:16;;;;;;;11.75;8.15;;;16.20;99.90;;;;;;5040067;28;20808;-61
2022/07/23 03:52:42;;;;;;;9.82;8.57;;;16.20;99.90;;;;;;5027390;28;20525;-61
2022/07/23 03:55:07;;;;;;;12.82;8.52;;;16.10;99.90;;;;;;5037883;28;20036;-60
2022/07/23 03:57:33;;;;;;;11.95;8.80;;;16.20;99.90;;;;;;5026910;28;20347;-60
2022/07/23 03:59:59;;;;;;;12.63;8.27;;;16.20;99.90;;;;;;5030574;28;20029;-61
2022/07/23 04:02:24;;;;;;;13.27;9.35;;;16.30;99.90;;;;;;5031122;28;20104;-61
2022/07/23 04:04:50;;;;;;;12.98;9.35;;;16.20;99.90;;;;;;5029333;28;20017;-60
2022/07/23 04:07:17;;;;;;;14.80;8.88;;;16.30;99.90;;;;;;5031700;28;20043;-60
2022/07/23 04:09:43;;;;;;;12.10;9.05;;;16.20;99.90;;;;;;5028982;28;20269;-61
2022/07/23 04:12:09;;;;;;;14.57;9.27;;;16.20;99.90;;;;;;5026168;28;20060;-61
2022/07/23 04:14:34;;;;;;;12.50;8.68;;;16.00;99.90;;;;;;5039927;28;20218;-61
2022/07/23 04:17:01;;;;;;;11.73;9.43;;;15.80;99.90;;;;;;5034031;28;20075;-60
2022/07/23 04:19:27;;;;;;;16.17;9.43;;;16.00;99.90;;;;;;5037613;28;20017;-61
2022/07/23 04:21:52;;;;;;;18.33;10.75;;;16.00;99.90;;;;;;5031582;28;20018;-60
2022/07/23 04:24:18;;;;;;;15.27;9.65;;;16.00;99.90;;;;;;5028835;28;20037;-60
2022/07/23 04:26:44;;;;;;;15.27;10.50;;;16.00;99.90;;;;;;5029300;28;20025;-61
2022/07/23 04:29:10;;;;;;;13.45;9.07;;;15.00;99.90;;;;;;5026586;28;20510;-60
2022/07/23 04:31:36;;;;;;;11.35;9.23;;;15.80;99.90;;;;;;5037912;28;20020;-61
2022/07/23 04:34:01;;;;;;;13.20;9.32;;;15.80;99.90;;;;;;5033890;28;20033;-60
2022/07/23 04:36:27;;;;;;;13.27;9.50;;;15.60;99.90;;;;;;5034125;28;20029;-61
2022/07/23 04:38:53;;;;;;;13.75;9.77;;;15.50;99.90;;;;;;5026009;28;20026;-61
2022/07/23 04:41:19;;;;;;;12.45;9.85;;;15.70;99.90;;;;;;5029022;28;20104;-60
2022/07/23 04:43:44;;;;;;;12.98;10.30;;;15.70;99.90;;;;;;5026116;28;20520;-60
2022/07/23 04:46:10;;;;;;;13.85;10.07;;;15.70;99.90;;;;;;5034693;28;20090;-60
2022/07/23 04:48:36;;;;;;;11.70;10.18;;;15.80;99.90;;;;;;5033828;28;20036;-60
2022/07/23 04:51:02;;;;;;;12.30;10.20;;;15.80;99.90;;;;;;5030432;28;20059;-61
2022/07/23 04:53:27;;;;;;;16.23;9.93;;;15.70;99.90;;;;;;5024389;28;20025;-61
2022/07/23 04:55:53;;;;;;;16.40;10.40;;;15.90;99.90;;;;;;5028963;28;20052;-61
2022/07/23 04:58:18;;;;;;;17.58;11.13;;;15.90;99.90;;;;;;5026643;28;20034;-61
2022/07/23 05:00:44;;;;;;;17.25;11.02;;;16.00;99.90;;;;;;5038199;28;20025;-60
2022/07/23 05:03:09;;;;;;;12.77;10.35;;;16.00;99.90;;;;;;5032629;28;20461;-61
2022/07/23 05:05:36;;;;;;;14.23;11.73;;;15.80;99.90;;;;;;5027438;28;20036;-60
2022/07/23 05:08:01;;;;;;;15.02;11.38;;;15.90;99.90;;;;;;5024482;28;20037;-60
2022/07/23 05:10:27;;;;;;;16.35;11.45;;;15.80;99.90;;;;;;5030725;28;20071;-61
2022/07/23 05:12:52;;;;;;;16.63;12.00;;;16.00;99.90;;;;;;5029271;28;20036;-60
2022/07/23 05:15:18;;;;;;;15.48;11.25;;;16.10;99.90;;;;;;5037246;28;20084;-61
2022/07/23 05:17:44;;;;;;;14.85;11.73;;;16.40;99.90;;;;;;5041826;28;20485;-61
2022/07/23 05:20:10;;;;;;;16.17;11.48;;;16.30;99.90;;;;;;5033008;28;20096;-61
2022/07/23 05:22:35;;;;;;;18.25;11.60;;;16.40;99.90;;;;;;5027532;28;20024;-60
2022/07/23 05:25:01;;;;;;;14.32;10.98;;;16.20;99.90;;;;;;5025400;28;20408;-61
2022/07/23 05:27:26;;;;;;;16.63;11.77;;;16.20;99.90;;;;;;5028756;28;20578;-61
2022/07/23 05:29:52;;;;;;;15.35;11.52;;;16.20;99.90;;;;;;5025930;28;20334;-60
2022/07/23 05:32:17;;;;;;;17.60;11.40;;;16.20;99.90;;;;;;5040464;28;20049;-61
2022/07/23 05:34:43;;;;;;;15.65;11.82;;;16.30;99.90;;;;;;5026095;28;20052;-60
2022/07/23 05:37:08;;;;;;;16.52;12.52;;;16.60;99.90;;;;;;5027947;28;20096;-60
2022/07/23 05:39:34;;;;;;;16.58;13.25;;;16.60;99.90;;;;;;5024776;28;20022;-61
2022/07/23 05:42:00;;;;;;;18.92;13.18;;;16.60;99.90;;;;;;5028529;28;20128;-61
2022/07/23 05:44:27;;;;;;;17.95;12.80;;;16.50;99.90;;;;;;5027381;28;20520;-61
2022/07/23 05:46:52;;;;;;;17.02;12.45;;;16.70;99.90;;;;;;5035207;28;20052;-61
2022/07/23 05:49:18;;;;;;;18.23;13.05;;;16.80;99.90;;;;;;5029449;28;20029;-61
2022/07/23 05:51:44;;;;;;;17.25;13.35;;;16.90;99.90;;;;;;5033946;28;20033;-61
2022/07/23 05:54:09;;;;;;;18.55;12.85;;;16.90;99.90;;;;;;5024441;28;20099;-60
2022/07/23 05:56:35;;;;;;;20.77;12.93;;;17.10;99.90;;;;;;5025329;28;20680;-61
2022/07/23 05:59:00;;;;;;;17.55;13.23;;;17.10;99.90;;;;;;5028915;28;20021;-61
2022/07/23 06:01:26;;;;;;;21.40;14.10;;;17.10;99.90;;;;;;5030324;28;20583;-61
2022/07/23 06:03:52;;;;;;;17.58;13.13;;;17.50;99.90;;;;;;5031316;28;20521;-60
2022/07/23 06:06:17;;;;;;;18.15;13.88;;;17.10;99.90;;;;;;5036241;28;20039;-61
2022/07/23 06:08:43;;;;;;;16.23;12.65;;;17.20;99.90;;;;;;5032101;28;20439;-61
2022/07/23 06:11:09;;;;;;;15.32;12.15;;;17.20;99.90;;;;;;5029128;28;20382;-61
2022/07/23 06:13:34;;;;;;;17.88;13.13;;;17.30;99.90;;;;;;5030990;28;20431;-60
2022/07/23 06:16:00;;;;;;;20.70;14.52;;;17.50;99.90;;;;;;5034112;28;20025;-60
2022/07/23 06:18:25;;;;;;;20.98;13.93;;;17.40;99.90;;;;;;5048506;28;20477;-61
2022/07/23 06:20:51;;;;;;;16.20;13.55;;;17.60;99.90;;;;;;5032108;28;20538;-60
2022/07/23 06:23:16;;;;;;;20.58;13.85;;;17.60;99.90;;;;;;5031813;28;20021;-61
2022/07/23 06:25:42;;;;;;;21.15;14.57;;;17.70;99.90;;;;;;5028666;28;20021;-61
2022/07/23 06:28:07;;;;;;;20.73;14.57;;;17.70;99.90;;;;;;5036856;28;20029;-61
2022/07/23 06:30:33;;;;;;;18.63;14.07;;;17.60;99.90;;;;;;5033135;28;20166;-61
2022/07/23 06:32:58;;;;;;;20.13;14.50;;;17.50;99.90;;;;;;5044663;28;20390;-61
2022/07/23 06:35:24;;;;;;;20.33;14.50;;;17.70;99.90;;;;;;5027846;28;20138;-60
2022/07/23 06:37:53;;;;;;;18.50;14.27;;;17.60;99.90;;;;;;5031469;28;20021;-60
2022/07/23 06:40:20;;;;;;;15.32;13.60;;;17.70;99.90;;;;;;5029629;28;20029;-61
2022/07/23 06:42:46;;;;;;;19.95;14.20;;;17.60;99.90;;;;;;5038847;28;20413;-60
2022/07/23 06:45:12;;;;;;;15.80;13.70;;;17.80;99.90;;;;;;5034360;28;20027;-61
2022/07/23 06:47:38;;;;;;;16.92;12.68;;;17.90;99.90;;;;;;5039632;28;20099;-60
2022/07/23 06:50:05;;;;;;;19.65;12.48;;;17.80;99.90;;;;;;5035432;28;20485;-61
2022/07/23 06:52:30;;;;;;;15.40;12.27;;;17.90;99.90;;;;;;5033053;28;20412;-60
2022/07/23 06:54:56;;;;;;;19.58;12.23;;;17.90;99.90;;;;;;5032045;28;20025;-61
2022/07/23 06:57:21;;;;;;;14.57;11.77;;;17.90;99.90;;;;;;5029350;28;20030;-61
2022/07/23 06:59:47;;;;;;;17.13;11.93;;;18.00;99.90;;;;;;5033069;28;20029;-61
2022/07/23 07:02:12;;;;;;;14.27;11.00;;;17.90;99.90;;;;;;5039211;28;20048;-61
2022/07/23 07:04:38;;;;;;;15.55;12.07;;;18.00;99.90;;;;;;5030488;28;20036;-61
2022/07/23 07:07:04;;;;;;;15.57;11.18;;;18.20;99.90;;;;;;5028243;28;20079;-60
2022/07/23 07:09:29;;;;;;;14.57;11.50;;;18.20;99.90;;;;;;5037259;28;20037;-60
2022/07/23 07:11:55;;;;;;;15.35;11.95;;;18.30;99.90;;;;;;5033927;28;20032;-60
2022/07/23 07:14:21;;;;;;;15.13;11.35;;;18.40;99.90;;;;;;5047671;28;20432;-60
2022/07/23 07:16:46;;;;;;;18.63;11.75;;;18.50;99.90;;;;;;5035362;28;20064;-61
2022/07/23 07:19:12;;;;;;;14.25;10.88;;;18.50;99.90;;;;;;5048416;28;20035;-60
2022/07/23 07:21:37;;;;;;;15.82;10.77;;;18.60;99.90;;;;;;5027116;28;20029;-61
2022/07/23 07:24:03;;;;;;;14.38;10.77;;;18.70;99.90;;;;;;5038642;28;20113;-61
2022/07/23 07:26:30;;;;;;;15.40;10.88;;;18.90;99.90;;;;;;5029844;28;20028;-61
2022/07/23 07:28:56;;;;;;;20.00;12.50;;;19.10;99.90;;;;;;5040545;28;20485;-60
2022/07/23 07:31:22;;;;;;;12.70;9.82;;;19.20;99.90;;;;;;5037405;28;20024;-61
2022/07/23 07:33:47;;;;;;;15.23;9.95;;;19.30;99.90;;;;;;5050337;28;20043;-61
2022/07/23 07:36:13;;;;;;;16.77;10.05;;;18.80;99.90;;;;;;5027158;28;20113;-60
2022/07/23 07:38:39;;;;;;;13.63;9.18;;;19.00;99.90;;;;;;5032466;28;20032;-60
2022/07/23 07:41:04;;;;;;;13.10;8.65;;;19.10;99.90;;;;;;5032168;28;20063;-61
2022/07/23 07:43:30;;;;;;;11.05;8.30;;;19.00;99.90;;;;;;5034228;28;20025;-61
2022/07/23 07:45:55;;;;;;;12.98;9.02;;;19.00;99.90;;;;;;5039111;28;20401;-61
2022/07/23 07:48:21;;;;;;;13.05;8.80;;;19.10;99.90;;;;;;5033110;28;20025;-60
2022/07/23 07:50:46;;;;;;;12.82;8.70;;;19.20;99.90;;;;;;5038897;28;20052;-60
2022/07/23 07:53:12;;;;;;;9.98;8.02;;;19.00;99.90;;;;;;5027557;28;20034;-61
2022/07/23 07:55:37;;;;;;;14.77;8.07;;;19.00;99.90;;;;;;5031779;28;20033;-61
2022/07/23 07:58:03;;;;;;;12.35;7.60;;;19.10;99.90;;;;;;5030891;28;20533;-61
2022/07/23 08:00:30;;;;;;;12.93;7.65;;;19.00;99.90;;;;;;5035385;28;20029;-61
2022/07/23 08:02:55;;;;;;;13.48;6.60;;;19.20;99.90;;;;;;5033210;28;20045;-61
2022/07/23 08:05:23;;;;;;;11.38;5.85;;;19.10;99.90;;;;;;5030042;28;20072;-61
2022/07/23 08:07:49;;;;;;;6.28;5.10;;;19.10;99.90;;;;;;5029169;28;20471;-61
2022/07/23 08:10:15;;;;;;;8.40;5.53;;;19.20;99.90;;;;;;5031378;28;20061;-61
2022/07/23 08:12:46;;;;;;;14.30;6.40;;;19.30;99.90;;;;;;5031022;28;20076;-61
2022/07/23 08:15:13;;;;;;;9.73;6.38;;;19.30;99.90;;;;;;5030521;28;20033;-61
2022/07/23 08:17:39;;;;;;;10.48;6.00;;;19.50;99.90;;;;;;5044154;28;20519;-60
2022/07/23 08:20:06;;;;;;;9.68;6.15;;;19.50;99.90;;;;;;5034884;28;20171;-61
2022/07/23 08:22:51;;;;;;;8.90;5.53;;;19.60;99.90;;;;;;5029401;28;20017;-61
2022/07/23 08:25:21;;;;;;;8.30;5.70;;;19.80;99.90;;;;;;5029961;28;20537;-60
2022/07/23 08:27:47;;;;;;;10.77;6.25;;;19.70;99.90;;;;;;5029930;28;20037;-60
2022/07/23 08:30:13;;;;;;;12.07;6.28;;;19.70;99.90;;;;;;5032361;28;20037;-61
2022/07/23 08:33:00;;;;;;;10.43;5.80;;;19.80;99.90;;;;;;5040744;28;20041;-61
2022/07/23 08:35:41;;;;;;;7.18;5.50;;;19.70;99.90;;;;;;5030888;28;20032;-60
2022/07/23 08:38:08;;;;;;;8.68;5.80;;;19.80;99.90;;;;;;5033449;28;20045;-61
2022/07/23 08:40:39;;;;;;;7.72;5.60;;;19.80;99.90;;;;;;5030266;28;20013;-61
2022/07/23 08:43:07;;;;;;;10.50;5.15;;;19.70;99.90;;;;;;5030005;28;20029;-61
2022/07/23 08:45:39;;;;;;;10.23;5.60;;;19.80;99.90;;;;;;5028627;28;20056;-61
2022/07/23 08:48:25;;;;;;;8.57;5.72;;;19.90;99.90;;;;;;5035131;28;20028;-61
2022/07/23 08:50:55;;;;;;;9.77;5.50;;;19.90;99.90;;;;;;5029553;28;20451;-61
2022/07/23 08:53:23;;;;;;;9.80;5.15;;;20.10;99.90;;;;;;5026578;28;20292;-61
2022/07/23 08:55:51;;;;;;;9.40;5.57;;;20.20;99.90;;;;;;5030404;28;20028;-60
2022/07/23 08:58:17;;;;;;;6.75;4.28;;;20.10;99.90;;;;;;5033577;28;20055;-60
2022/07/23 09:00:43;;;;;;;7.28;5.00;;;20.50;99.90;;;;;;5029257;28;20025;-61
2022/07/23 09:03:18;;;;;;;9.10;5.32;;;20.40;99.90;;;;;;5031073;28;20045;-61
2022/07/23 09:05:44;;;;;;;10.25;5.70;;;20.40;99.90;;;;;;5028943;28;20540;-61
2022/07/23 09:08:11;;;;;;;7.43;3.75;;;20.30;99.90;;;;;;5026200;28;20037;-61
2022/07/23 09:10:53;;;;;;;5.13;3.70;;;20.20;99.90;;;;;;5038648;28;20417;-61
2022/07/23 09:13:34;;;;;;;7.10;4.03;;;20.30;99.90;;;;;;5028266;28;20029;-61
2022/07/23 09:16:04;;;;;;;6.85;4.15;;;20.60;99.90;;;;;;5035803;28;20460;-61
2022/07/23 09:18:38;;;;;;;7.30;4.05;;;20.40;99.90;;;;;;5044591;28;20025;-60
2022/07/23 09:21:06;;;;;;;6.53;3.90;;;20.50;99.90;;;;;;5026795;28;20485;-61
2022/07/23 09:23:51;;;;;;;6.03;4.25;;;20.70;99.90;;;;;;5029878;28;20057;-61
2022/07/23 09:26:19;;;;;;;4.88;3.90;;;20.60;99.90;;;;;;5041603;28;20037;-61
2022/07/23 09:29:06;;;;;;;4.72;3.40;;;20.90;99.90;;;;;;5036542;28;20112;-60
2022/07/23 09:31:52;;;;;;;4.93;3.78;;;20.80;99.90;;;;;;5028520;28;20036;-61
2022/07/23 09:34:18;;;;;;;8.43;3.47;;;20.90;99.90;;;;;;5031296;28;20025;-60
2022/07/23 09:36:44;;;;;;;10.52;3.40;;;21.10;99.90;;;;;;5027524;28;20029;-60
2022/07/23 09:39:11;;;;;;;4.53;3.30;;;21.10;99.90;;;;;;5027151;28;20018;-61
2022/07/23 09:41:43;;;;;;;4.47;3.35;;;21.20;99.90;;;;;;5024534;28;20043;-61
2022/07/23 09:44:15;;;;;;;6.32;3.40;;;21.30;99.90;;;;;;5027532;28;20105;-61
2022/07/23 09:46:43;;;;;;;7.10;3.63;;;21.30;99.90;;;;;;5033937;28;20080;-61
2022/07/23 09:49:26;;;;;;;5.22;3.22;;;21.40;99.90;;;;;;5033992;28;20527;-62
2022/07/23 09:51:57;;;;;;;5.97;2.97;;;21.50;99.90;;;;;;5029190;28;20216;-61
2022/07/23 09:54:27;;;;;;;4.95;3.05;;;22.00;99.90;;;;;;5027728;28;20101;-61
2022/07/23 09:56:54;;;;;;;5.30;3.13;;;21.80;99.90;;;;;;5031215;28;20060;-61
2022/07/23 09:59:22;;;;;;;6.65;3.20;;;21.50;99.90;;;;;;5030396;28;20013;-61
2022/07/23 10:01:49;;;;;;;5.22;3.25;;;21.50;99.90;;;;;;5035859;28;20028;-61
2022/07/23 10:04:16;;;;;;;5.18;3.30;;;21.40;99.90;;;;;;5026569;28;20022;-62
2022/07/23 10:06:45;;;;;;;5.97;3.53;;;21.60;99.90;;;;;;5030736;28;20116;-60
2022/07/23 10:09:15;;;;;;;5.30;3.35;;;21.80;99.90;;;;;;5029611;28;20029;-61
2022/07/23 10:11:42;;;;;;;5.28;3.90;;;21.90;99.90;;;;;;5028205;28;20043;-61
2022/07/23 10:14:08;;;;;;;4.05;3.13;;;22.00;99.90;;;;;;5023932;28;20057;-62
2022/07/23 10:16:33;;;;;;;7.22;3.75;;;21.90;99.90;;;;;;5034168;28;20060;-60
2022/07/23 10:18:59;;;;;;;4.88;3.45;;;22.00;99.90;;;;;;5046299;28;20021;-61
2022/07/23 10:21:39;;;;;;;6.88;3.58;;;22.00;99.90;;;;;;5030114;28;20029;-61
2022/07/23 10:24:20;;;;;;;5.38;3.22;;;21.80;99.90;;;;;;5029411;28;20032;-61
2022/07/23 10:27:24;;;;;;;6.32;3.50;;;21.70;99.90;;;;;;5035237;28;20034;-61
2022/07/23 10:29:58;;;;;;;7.28;3.42;;;21.80;99.90;;;;;;4997883;28;20551;-61
2022/07/23 10:32:57;;;;;;;4.97;3.38;;;21.80;99.90;;;;;;5027245;28;20048;-61
2022/07/23 10:35:37;;;;;;;5.60;3.50;;;22.00;99.90;;;;;;5025650;28;20359;-61
2022/07/23 10:38:14;;;;;;;4.75;2.80;;;22.00;99.90;;;;;;5021432;28;20191;-61
2022/07/23 10:41:00;;;;;;;5.47;2.53;;;22.00;99.90;;;;;;5029140;28;20461;-61
2022/07/23 10:43:28;;;;;;;3.53;2.00;;;22.10;99.90;;;;;;5027350;28;20026;-61
2022/07/23 10:45:54;;;;;;;4.68;2.47;;;22.20;99.90;;;;;;5028800;28;20029;-61
2022/07/23 10:48:29;;;;;;;4.20;2.13;;;22.30;99.90;;;;;;5033030;28;20035;-61
2022/07/23 10:51:15;;;;;;;4.15;2.47;;;22.30;99.90;;;;;;5030337;28;20037;-61
2022/07/23 10:53:58;;;;;;;5.47;2.47;;;22.10;99.90;;;;;;5029738;28;20021;-60
2022/07/23 10:56:54;;;;;;;6.07;2.17;;;22.00;99.90;;;;;;5028377;28;20519;-61
2022/07/23 10:59:20;;;;;;;2.55;1.88;;;22.30;99.90;;;;;;5034130;28;20401;-61
2022/07/23 11:01:46;;;;;;;3.70;2.10;;;22.50;99.90;;;;;;5045979;28;20468;-61
2022/07/23 11:04:13;;;;;;;3.78;2.20;;;22.60;99.90;;;;;;5030945;28;20083;-61
2022/07/23 11:06:50;;;;;;;4.38;2.00;;;22.70;99.90;;;;;;5034956;28;20021;-60
2022/07/23 11:09:27;;;;;;;4.30;1.75;;;22.70;99.90;;;;;;5027171;28;20485;-61
2022/07/23 11:12:21;;;;;;;4.15;2.13;;;22.70;99.90;;;;;;5036116;28;20808;-61
2022/07/23 11:15:09;;;;;;;5.50;2.40;;;22.50;99.90;;;;;;5032688;28;20017;-60
2022/07/23 11:17:59;;;;;;;5.20;2.50;;;22.60;99.90;;;;;;5040741;28;20039;-61
2022/07/23 11:20:25;;;;;;;4.65;2.15;;;22.60;99.90;;;;;;5038482;28;20021;-60
2022/07/23 11:22:55;;;;;;;3.95;2.30;;;22.70;99.90;;;;;;5039217;28;20371;-61
2022/07/23 11:25:21;;;;;;;4.72;2.60;;;22.40;99.90;;;;;;5037576;28;20029;-61
2022/07/23 11:27:48;;;;;;;5.72;2.25;;;22.50;99.90;;;;;;5027790;28;20362;-61
2022/07/23 11:30:26;;;;;;;4.50;2.50;;;22.80;99.90;;;;;;5031769;28;20026;-61
2022/07/23 11:32:53;;;;;;;3.95;2.03;;;22.80;99.90;;;;;;5031209;28;20321;-60
2022/07/23 11:35:25;;;;;;;3.17;1.75;;;22.90;99.90;;;;;;5038720;28;20067;-61
2022/07/23 11:37:53;;;;;;;4.07;2.25;;;23.10;99.90;;;;;;5038769;28;20029;-61
2022/07/23 11:40:20;;;;;;;4.43;2.42;;;23.10;99.90;;;;;;5030203;28;20439;-61
2022/07/23 11:43:04;;;;;;;5.20;2.60;;;23.20;99.90;;;;;;5030398;28;20416;-61
2022/07/23 11:45:36;;;;;;;2.85;2.20;;;23.20;99.90;;;;;;5029025;28;20040;-61
2022/07/23 11:48:03;;;;;;;4.00;2.50;;;23.20;99.90;;;;;;5036004;28;20052;-61
2022/07/23 11:50:29;;;;;;;4.63;2.22;;;23.30;99.90;;;;;;5028273;28;20663;-61
2022/07/23 11:52:55;;;;;;;4.97;2.60;;;23.30;99.90;;;;;;5028988;28;20041;-61
2022/07/23 11:55:24;;;;;;;5.07;2.38;;;23.10;99.90;;;;;;5026142;28;20033;-61
2022/07/23 11:57:52;;;;;;;3.65;1.85;;;23.10;99.90;;;;;;5028392;28;20029;-60
2022/07/23 12:00:24;;;;;;;3.40;2.53;;;23.20;99.90;;;;;;5035565;28;20493;-61
2022/07/23 12:02:53;;;;;;;6.45;2.67;;;23.40;99.90;;;;;;5040267;28;20401;-61
2022/07/23 12:05:23;;;;;;;5.50;2.88;;;23.50;99.90;;;;;;5031707;28;20032;-61
2022/07/23 12:07:51;;;;;;;4.30;2.70;;;23.20;99.90;;;;;;5032589;28;20201;-61
2022/07/23 12:10:18;;;;;;;3.38;2.70;;;23.30;99.90;;;;;;5026610;28;20037;-62
2022/07/23 12:12:50;;;;;;;3.35;2.20;;;23.30;99.90;;;;;;5030301;28;20053;-60
2022/07/23 12:15:19;;;;;;;3.55;2.10;;;23.30;99.90;;;;;;5033600;28;20322;-61
2022/07/23 12:17:47;;;;;;;5.22;2.50;;;23.40;99.90;;;;;;5040405;28;20029;-61
2022/07/23 12:20:20;;;;;;;4.05;2.30;;;23.50;99.90;;;;;;5043026;28;20132;-61
2022/07/23 12:22:48;;;;;;;3.45;2.03;;;23.40;99.90;;;;;;5027678;28;20025;-61
2022/07/23 12:25:22;;;;;;;3.30;2.25;;;23.40;99.90;;;;;;5029319;28;20541;-60
2022/07/23 12:28:03;;;;;;;4.25;2.08;;;23.40;99.90;;;;;;5024620;28;20029;-61
2022/07/23 12:30:33;;;;;;;3.25;1.73;;;23.40;99.90;;;;;;5033148;28;20078;-61
2022/07/23 12:32:59;;;;;;;5.95;1.85;;;23.50;99.90;;;;;;5034046;28;20033;-61
2022/07/23 12:35:32;;;;;;;5.90;2.13;;;23.70;99.90;;;;;;5031715;28;20040;-61
2022/07/23 12:38:00;;;;;;;;;;;23.90;99.90;;;;;;5031623;28;20032;-61
2022/07/23 12:40:28;;;;;;;4.47;2.10;;;23.90;99.90;;;;;;5031456;28;19909;-61
2022/07/23 12:42:57;;;;;;;5.95;2.28;;;24.00;99.90;;;;;;5044671;28;20055;-61